sensor_id;sensor_type;location;lat;lon;timestamp;P1;P2;P0
61760;PMS5003;47664;51.660;-0.100;2023-03-04T00:01:42;4;1;
61760;PMS5003;47664;51.660;-0.100;2023-03-04T00:04:15;5;0;
61760;PMS5003;47664;51.660;-0.100;2023-03-04T00:06:47;4;3;
61760;PMS5003;47664;51.660;-0.100;2023-03-04T00:09:19;4;1;
61760;PMS5003;47664;51.660;-0.100;2023-03-04T00:11:51;2;2;
61760;PMS5003;47664;51.660;-0.100;2023-03-04T00:14:23;3;2;
61760;PMS5003;47664;51.660;-0.100;2023-03-04T00:16:56;3;2;
61760;PMS5003;47664;51.660;-0.100;2023-03-04T00:19:28;1;1;
61760;PMS5003;47664;51.660;-0.100;2023-03-04T00:22:01;6;3;
61760;PMS5003;47664;51.660;-0.100;2023-03-04T00:24:33;2;0;
61760;PMS5003;47664;51.660;-0.100;2023-03-04T00:27:05;1;1;
61760;PMS5003;47664;51.660;-0.100;2023-03-04T00:29:37;3;1;
61760;PMS5003;47664;51.660;-0.100;2023-03-04T00:32:09;1;0;
61760;PMS5003;47664;51.660;-0.100;2023-03-04T00:34:41;2;2;
61760;PMS5003;47664;51.660;-0.100;2023-03-04T00:37:14;5;1;
61760;PMS5003;47664;51.660;-0.100;2023-03-04T00:39:46;0;0;
61760;PMS5003;47664;51.660;-0.100;2023-03-04T00:42:18;2;0;
61760;PMS5003;47664;51.660;-0.100;2023-03-04T00:44:50;2;2;
61760;PMS5003;47664;51.660;-0.100;2023-03-04T00:47:22;0;0;
61760;PMS5003;47664;51.660;-0.100;2023-03-04T00:49:55;1;1;
61760;PMS5003;47664;51.660;-0.100;2023-03-04T00:52:28;4;2;
61760;PMS5003;47664;51.660;-0.100;2023-03-04T00:55:01;7;2;
61760;PMS5003;47664;51.660;-0.100;2023-03-04T00:57:34;3;1;
61760;PMS5003;47664;51.660;-0.100;2023-03-04T01:00:06;3;1;
61760;PMS5003;47664;51.660;-0.100;2023-03-04T01:02:40;7;1;
61760;PMS5003;47664;51.660;-0.100;2023-03-04T01:05:12;2;1;
61760;PMS5003;47664;51.660;-0.100;2023-03-04T01:07:44;1;1;
61760;PMS5003;47664;51.660;-0.100;2023-03-04T01:10:16;1;1;
61760;PMS5003;47664;51.660;-0.100;2023-03-04T01:12:48;5;3;
61760;PMS5003;47664;51.660;-0.100;2023-03-04T01:15:21;6;6;
61760;PMS5003;47664;51.660;-0.100;2023-03-04T01:17:53;6;2;
61760;PMS5003;47664;51.660;-0.100;2023-03-04T01:20:25;4;2;
61760;PMS5003;47664;51.660;-0.100;2023-03-04T01:22:58;2;2;
61760;PMS5003;47664;51.660;-0.100;2023-03-04T01:25:30;4;1;
61760;PMS5003;47664;51.660;-0.100;2023-03-04T01:28:03;3;3;
61760;PMS5003;47664;51.660;-0.100;2023-03-04T01:30:35;1;1;
61760;PMS5003;47664;51.660;-0.100;2023-03-04T01:33:07;2;1;
61760;PMS5003;47664;51.660;-0.100;2023-03-04T01:35:39;1;1;
61760;PMS5003;47664;51.660;-0.100;2023-03-04T01:38:11;2;1;
61760;PMS5003;47664;51.660;-0.100;2023-03-04T01:40:43;2;2;
61760;PMS5003;47664;51.660;-0.100;2023-03-04T01:43:17;2;1;
61760;PMS5003;47664;51.660;-0.100;2023-03-04T01:45:48;4;1;
61760;PMS5003;47664;51.660;-0.100;2023-03-04T01:48:23;3;1;
61760;PMS5003;47664;51.660;-0.100;2023-03-04T01:50:58;5;1;
61760;PMS5003;47664;51.660;-0.100;2023-03-04T01:53:32;2;0;
61760;PMS5003;47664;51.660;-0.100;2023-03-04T01:56:10;2;1;
61760;PMS5003;47664;51.660;-0.100;2023-03-04T01:58:41;1;0;
61760;PMS5003;47664;51.660;-0.100;2023-03-04T02:01:31;0;0;
61760;PMS5003;47664;51.660;-0.100;2023-03-04T02:04:05;4;4;
61760;PMS5003;47664;51.660;-0.100;2023-03-04T02:06:39;3;0;
61760;PMS5003;47664;51.660;-0.100;2023-03-04T02:09:13;4;2;
61760;PMS5003;47664;51.660;-0.100;2023-03-04T02:11:46;1;1;
61760;PMS5003;47664;51.660;-0.100;2023-03-04T02:14:19;1;0;
61760;PMS5003;47664;51.660;-0.100;2023-03-04T02:16:51;3;3;
61760;PMS5003;47664;51.660;-0.100;2023-03-04T02:19:28;2;2;
61760;PMS5003;47664;51.660;-0.100;2023-03-04T02:22:05;5;2;
61760;PMS5003;47664;51.660;-0.100;2023-03-04T02:24:38;0;0;
61760;PMS5003;47664;51.660;-0.100;2023-03-04T02:27:11;0;0;
61760;PMS5003;47664;51.660;-0.100;2023-03-04T02:29:43;0;0;
61760;PMS5003;47664;51.660;-0.100;2023-03-04T02:32:15;4;2;
61760;PMS5003;47664;51.660;-0.100;2023-03-04T02:34:48;1;1;
61760;PMS5003;47664;51.660;-0.100;2023-03-04T02:37:21;0;0;
61760;PMS5003;47664;51.660;-0.100;2023-03-04T02:39:54;3;1;
61760;PMS5003;47664;51.660;-0.100;2023-03-04T02:42:26;0;0;
61760;PMS5003;47664;51.660;-0.100;2023-03-04T02:44:59;4;4;
61760;PMS5003;47664;51.660;-0.100;2023-03-04T02:47:32;1;0;
61760;PMS5003;47664;51.660;-0.100;2023-03-04T02:50:05;3;0;
61760;PMS5003;47664;51.660;-0.100;2023-03-04T02:52:37;8;2;
61760;PMS5003;47664;51.660;-0.100;2023-03-04T02:55:09;3;1;
61760;PMS5003;47664;51.660;-0.100;2023-03-04T02:57:42;4;1;
61760;PMS5003;47664;51.660;-0.100;2023-03-04T03:00:14;2;1;
61760;PMS5003;47664;51.660;-0.100;2023-03-04T03:02:46;3;1;
61760;PMS5003;47664;51.660;-0.100;2023-03-04T03:05:18;2;2;
61760;PMS5003;47664;51.660;-0.100;2023-03-04T03:07:53;3;1;
61760;PMS5003;47664;51.660;-0.100;2023-03-04T03:10:25;2;1;
61760;PMS5003;47664;51.660;-0.100;2023-03-04T03:12:59;1;1;
61760;PMS5003;47664;51.660;-0.100;2023-03-04T03:15:32;4;0;
61760;PMS5003;47664;51.660;-0.100;2023-03-04T03:18:04;2;0;
61760;PMS5003;47664;51.660;-0.100;2023-03-04T03:20:37;1;1;
61760;PMS5003;47664;51.660;-0.100;2023-03-04T03:23:09;3;1;
61760;PMS5003;47664;51.660;-0.100;2023-03-04T03:25:41;8;5;
61760;PMS5003;47664;51.660;-0.100;2023-03-04T03:28:13;4;2;
61760;PMS5003;47664;51.660;-0.100;2023-03-04T03:30:45;2;2;
61760;PMS5003;47664;51.660;-0.100;2023-03-04T03:33:17;0;0;
61760;PMS5003;47664;51.660;-0.100;2023-03-04T03:35:50;0;0;
61760;PMS5003;47664;51.660;-0.100;2023-03-04T03:38:21;5;2;
61760;PMS5003;47664;51.660;-0.100;2023-03-04T03:40:54;3;2;
61760;PMS5003;47664;51.660;-0.100;2023-03-04T03:43:26;4;1;
61760;PMS5003;47664;51.660;-0.100;2023-03-04T03:45:59;0;0;
61760;PMS5003;47664;51.660;-0.100;2023-03-04T03:48:31;4;1;
61760;PMS5003;47664;51.660;-0.100;2023-03-04T03:51:04;3;1;
61760;PMS5003;47664;51.660;-0.100;2023-03-04T03:53:36;3;2;
61760;PMS5003;47664;51.660;-0.100;2023-03-04T03:56:08;2;2;
61760;PMS5003;47664;51.660;-0.100;2023-03-04T03:58:40;3;0;
61760;PMS5003;47664;51.660;-0.100;2023-03-04T04:01:12;4;3;
61760;PMS5003;47664;51.660;-0.100;2023-03-04T04:03:45;3;1;
61760;PMS5003;47664;51.660;-0.100;2023-03-04T04:06:18;7;4;
61760;PMS5003;47664;51.660;-0.100;2023-03-04T04:08:50;3;3;
61760;PMS5003;47664;51.660;-0.100;2023-03-04T04:11:22;2;2;
61760;PMS5003;47664;51.660;-0.100;2023-03-04T04:13:54;2;2;
61760;PMS5003;47664;51.660;-0.100;2023-03-04T04:16:27;4;2;
61760;PMS5003;47664;51.660;-0.100;2023-03-04T04:19:00;8;8;
61760;PMS5003;47664;51.660;-0.100;2023-03-04T04:21:33;6;5;
61760;PMS5003;47664;51.660;-0.100;2023-03-04T04:24:05;1;1;
61760;PMS5003;47664;51.660;-0.100;2023-03-04T04:26:38;4;4;
61760;PMS5003;47664;51.660;-0.100;2023-03-04T04:29:12;7;2;
61760;PMS5003;47664;51.660;-0.100;2023-03-04T04:31:40;3;3;
61760;PMS5003;47664;51.660;-0.100;2023-03-04T04:34:13;6;3;
61760;PMS5003;47664;51.660;-0.100;2023-03-04T04:36:45;1;0;
61760;PMS5003;47664;51.660;-0.100;2023-03-04T04:39:17;5;2;
61760;PMS5003;47664;51.660;-0.100;2023-03-04T04:41:49;5;2;
61760;PMS5003;47664;51.660;-0.100;2023-03-04T04:44:21;8;7;
61760;PMS5003;47664;51.660;-0.100;2023-03-04T04:46:54;6;3;
61760;PMS5003;47664;51.660;-0.100;2023-03-04T04:49:26;7;5;
61760;PMS5003;47664;51.660;-0.100;2023-03-04T04:51:58;3;3;
61760;PMS5003;47664;51.660;-0.100;2023-03-04T04:54:30;8;2;
61760;PMS5003;47664;51.660;-0.100;2023-03-04T04:57:03;4;2;
61760;PMS5003;47664;51.660;-0.100;2023-03-04T04:59:35;5;2;
61760;PMS5003;47664;51.660;-0.100;2023-03-04T05:02:07;4;4;
61760;PMS5003;47664;51.660;-0.100;2023-03-04T05:04:39;5;5;
61760;PMS5003;47664;51.660;-0.100;2023-03-04T05:07:11;8;2;
61760;PMS5003;47664;51.660;-0.100;2023-03-04T05:09:43;8;3;
61760;PMS5003;47664;51.660;-0.100;2023-03-04T05:12:15;9;7;
61760;PMS5003;47664;51.660;-0.100;2023-03-04T05:14:47;2;2;
61760;PMS5003;47664;51.660;-0.100;2023-03-04T05:17:19;4;3;
61760;PMS5003;47664;51.660;-0.100;2023-03-04T05:19:51;1;1;
61760;PMS5003;47664;51.660;-0.100;2023-03-04T05:22:23;3;2;
61760;PMS5003;47664;51.660;-0.100;2023-03-04T05:24:55;1;1;
61760;PMS5003;47664;51.660;-0.100;2023-03-04T05:27:27;1;1;
61760;PMS5003;47664;51.660;-0.100;2023-03-04T05:30:00;4;3;
61760;PMS5003;47664;51.660;-0.100;2023-03-04T05:32:33;3;2;
61760;PMS5003;47664;51.660;-0.100;2023-03-04T05:35:05;1;1;
61760;PMS5003;47664;51.660;-0.100;2023-03-04T05:37:38;5;2;
61760;PMS5003;47664;51.660;-0.100;2023-03-04T05:40:11;5;2;
61760;PMS5003;47664;51.660;-0.100;2023-03-04T05:42:44;1;1;
61760;PMS5003;47664;51.660;-0.100;2023-03-04T05:45:16;5;4;
61760;PMS5003;47664;51.660;-0.100;2023-03-04T05:47:48;4;2;
61760;PMS5003;47664;51.660;-0.100;2023-03-04T05:50:21;3;2;
61760;PMS5003;47664;51.660;-0.100;2023-03-04T05:52:54;2;2;
61760;PMS5003;47664;51.660;-0.100;2023-03-04T05:55:26;1;1;
61760;PMS5003;47664;51.660;-0.100;2023-03-04T05:57:58;5;3;
61760;PMS5003;47664;51.660;-0.100;2023-03-04T06:00:31;4;2;
61760;PMS5003;47664;51.660;-0.100;2023-03-04T06:03:04;4;2;
61760;PMS5003;47664;51.660;-0.100;2023-03-04T06:05:38;1;1;
61760;PMS5003;47664;51.660;-0.100;2023-03-04T06:08:11;1;1;
61760;PMS5003;47664;51.660;-0.100;2023-03-04T06:10:43;2;2;
61760;PMS5003;47664;51.660;-0.100;2023-03-04T06:13:18;2;2;
61760;PMS5003;47664;51.660;-0.100;2023-03-04T06:15:52;2;1;
61760;PMS5003;47664;51.660;-0.100;2023-03-04T06:18:26;4;2;
61760;PMS5003;47664;51.660;-0.100;2023-03-04T06:20:59;3;1;
61760;PMS5003;47664;51.660;-0.100;2023-03-04T06:23:32;4;4;
61760;PMS5003;47664;51.660;-0.100;2023-03-04T06:26:04;4;2;
61760;PMS5003;47664;51.660;-0.100;2023-03-04T06:28:36;1;1;
61760;PMS5003;47664;51.660;-0.100;2023-03-04T06:31:08;0;0;
61760;PMS5003;47664;51.660;-0.100;2023-03-04T06:33:40;1;1;
61760;PMS5003;47664;51.660;-0.100;2023-03-04T06:36:12;1;1;
61760;PMS5003;47664;51.660;-0.100;2023-03-04T06:38:44;0;0;
61760;PMS5003;47664;51.660;-0.100;2023-03-04T06:41:16;6;2;
61760;PMS5003;47664;51.660;-0.100;2023-03-04T06:43:49;2;2;
61760;PMS5003;47664;51.660;-0.100;2023-03-04T06:46:24;2;1;
61760;PMS5003;47664;51.660;-0.100;2023-03-04T06:48:59;4;3;
61760;PMS5003;47664;51.660;-0.100;2023-03-04T06:51:31;4;0;
61760;PMS5003;47664;51.660;-0.100;2023-03-04T06:54:04;3;1;
61760;PMS5003;47664;51.660;-0.100;2023-03-04T06:56:36;2;2;
61760;PMS5003;47664;51.660;-0.100;2023-03-04T06:59:08;3;3;
61760;PMS5003;47664;51.660;-0.100;2023-03-04T07:01:40;3;1;
61760;PMS5003;47664;51.660;-0.100;2023-03-04T07:04:13;2;1;
61760;PMS5003;47664;51.660;-0.100;2023-03-04T07:06:45;3;3;
61760;PMS5003;47664;51.660;-0.100;2023-03-04T07:09:18;4;3;
61760;PMS5003;47664;51.660;-0.100;2023-03-04T07:11:50;3;2;
61760;PMS5003;47664;51.660;-0.100;2023-03-04T07:14:22;3;2;
61760;PMS5003;47664;51.660;-0.100;2023-03-04T07:16:54;3;2;
61760;PMS5003;47664;51.660;-0.100;2023-03-04T07:19:27;3;1;
61760;PMS5003;47664;51.660;-0.100;2023-03-04T07:21:59;1;1;
61760;PMS5003;47664;51.660;-0.100;2023-03-04T07:24:32;4;1;
61760;PMS5003;47664;51.660;-0.100;2023-03-04T07:27:05;3;2;
61760;PMS5003;47664;51.660;-0.100;2023-03-04T07:29:37;6;4;
61760;PMS5003;47664;51.660;-0.100;2023-03-04T07:32:09;4;1;
61760;PMS5003;47664;51.660;-0.100;2023-03-04T07:34:41;4;2;
61760;PMS5003;47664;51.660;-0.100;2023-03-04T07:37:13;2;2;
61760;PMS5003;47664;51.660;-0.100;2023-03-04T07:39:46;4;3;
61760;PMS5003;47664;51.660;-0.100;2023-03-04T07:42:18;3;3;
61760;PMS5003;47664;51.660;-0.100;2023-03-04T07:44:50;9;3;
61760;PMS5003;47664;51.660;-0.100;2023-03-04T07:47:22;4;3;
61760;PMS5003;47664;51.660;-0.100;2023-03-04T07:49:54;3;2;
61760;PMS5003;47664;51.660;-0.100;2023-03-04T07:52:26;3;1;
61760;PMS5003;47664;51.660;-0.100;2023-03-04T07:54:59;3;1;
61760;PMS5003;47664;51.660;-0.100;2023-03-04T07:57:31;1;1;
61760;PMS5003;47664;51.660;-0.100;2023-03-04T08:00:04;4;3;
61760;PMS5003;47664;51.660;-0.100;2023-03-04T08:02:39;4;4;
61760;PMS5003;47664;51.660;-0.100;2023-03-04T08:05:11;4;2;
61760;PMS5003;47664;51.660;-0.100;2023-03-04T08:07:43;5;3;
61760;PMS5003;47664;51.660;-0.100;2023-03-04T08:10:15;9;8;
61760;PMS5003;47664;51.660;-0.100;2023-03-04T08:12:47;15;10;
61760;PMS5003;47664;51.660;-0.100;2023-03-04T08:15:19;12;9;
61760;PMS5003;47664;51.660;-0.100;2023-03-04T08:17:52;8;8;
61760;PMS5003;47664;51.660;-0.100;2023-03-04T08:20:24;9;6;
61760;PMS5003;47664;51.660;-0.100;2023-03-04T08:22:56;6;5;
61760;PMS5003;47664;51.660;-0.100;2023-03-04T08:25:29;10;9;
61760;PMS5003;47664;51.660;-0.100;2023-03-04T08:28:03;8;7;
61760;PMS5003;47664;51.660;-0.100;2023-03-04T08:30:36;11;11;
61760;PMS5003;47664;51.660;-0.100;2023-03-04T08:33:08;14;7;
61760;PMS5003;47664;51.660;-0.100;2023-03-04T08:35:41;5;4;
61760;PMS5003;47664;51.660;-0.100;2023-03-04T08:38:13;6;6;
61760;PMS5003;47664;51.660;-0.100;2023-03-04T08:40:45;6;4;
61760;PMS5003;47664;51.660;-0.100;2023-03-04T08:43:18;6;4;
61760;PMS5003;47664;51.660;-0.100;2023-03-04T08:45:51;9;7;
61760;PMS5003;47664;51.660;-0.100;2023-03-04T08:48:23;8;5;
61760;PMS5003;47664;51.660;-0.100;2023-03-04T08:50:56;6;5;
61760;PMS5003;47664;51.660;-0.100;2023-03-04T08:53:32;7;6;
61760;PMS5003;47664;51.660;-0.100;2023-03-04T08:56:06;9;4;
61760;PMS5003;47664;51.660;-0.100;2023-03-04T08:58:38;9;4;
61760;PMS5003;47664;51.660;-0.100;2023-03-04T09:01:11;14;12;
61760;PMS5003;47664;51.660;-0.100;2023-03-04T09:03:43;14;10;
61760;PMS5003;47664;51.660;-0.100;2023-03-04T09:06:15;11;8;
61760;PMS5003;47664;51.660;-0.100;2023-03-04T09:08:48;7;7;
61760;PMS5003;47664;51.660;-0.100;2023-03-04T09:11:21;10;9;
61760;PMS5003;47664;51.660;-0.100;2023-03-04T09:13:53;8;6;
61760;PMS5003;47664;51.660;-0.100;2023-03-04T09:16:25;11;6;
61760;PMS5003;47664;51.660;-0.100;2023-03-04T09:18:58;11;8;
61760;PMS5003;47664;51.660;-0.100;2023-03-04T09:21:31;13;7;
61760;PMS5003;47664;51.660;-0.100;2023-03-04T09:24:03;13;7;
61760;PMS5003;47664;51.660;-0.100;2023-03-04T09:26:35;11;8;
61760;PMS5003;47664;51.660;-0.100;2023-03-04T09:29:08;8;6;
61760;PMS5003;47664;51.660;-0.100;2023-03-04T09:31:40;6;5;
61760;PMS5003;47664;51.660;-0.100;2023-03-04T09:34:13;7;7;
61760;PMS5003;47664;51.660;-0.100;2023-03-04T09:36:45;6;5;
61760;PMS5003;47664;51.660;-0.100;2023-03-04T09:39:17;6;5;
61760;PMS5003;47664;51.660;-0.100;2023-03-04T09:41:49;7;7;
61760;PMS5003;47664;51.660;-0.100;2023-03-04T09:44:25;9;7;
61760;PMS5003;47664;51.660;-0.100;2023-03-04T09:46:57;9;6;
61760;PMS5003;47664;51.660;-0.100;2023-03-04T09:49:30;8;5;
61760;PMS5003;47664;51.660;-0.100;2023-03-04T09:52:06;9;6;
61760;PMS5003;47664;51.660;-0.100;2023-03-04T09:54:50;10;6;
61760;PMS5003;47664;51.660;-0.100;2023-03-04T09:57:29;8;8;
61760;PMS5003;47664;51.660;-0.100;2023-03-04T10:00:12;7;7;
61760;PMS5003;47664;51.660;-0.100;2023-03-04T10:03:20;6;6;
61760;PMS5003;47664;51.660;-0.100;2023-03-04T10:05:54;9;7;
61760;PMS5003;47664;51.660;-0.100;2023-03-04T10:08:33;9;7;
61760;PMS5003;47664;51.660;-0.100;2023-03-04T10:11:07;7;7;
61760;PMS5003;47664;51.660;-0.100;2023-03-04T10:13:42;11;6;
61760;PMS5003;47664;51.660;-0.100;2023-03-04T10:16:20;10;7;
61760;PMS5003;47664;51.660;-0.100;2023-03-04T10:18:57;6;6;
61760;PMS5003;47664;51.660;-0.100;2023-03-04T10:21:33;8;5;
61760;PMS5003;47664;51.660;-0.100;2023-03-04T10:24:10;7;7;
61760;PMS5003;47664;51.660;-0.100;2023-03-04T10:26:44;9;9;
61760;PMS5003;47664;51.660;-0.100;2023-03-04T10:29:20;4;4;
61760;PMS5003;47664;51.660;-0.100;2023-03-04T10:31:55;11;9;
61760;PMS5003;47664;51.660;-0.100;2023-03-04T10:34:28;11;9;
61760;PMS5003;47664;51.660;-0.100;2023-03-04T10:37:01;7;7;
61760;PMS5003;47664;51.660;-0.100;2023-03-04T10:39:33;11;8;
61760;PMS5003;47664;51.660;-0.100;2023-03-04T10:42:21;11;9;
61760;PMS5003;47664;51.660;-0.100;2023-03-04T10:44:54;7;7;
61760;PMS5003;47664;51.660;-0.100;2023-03-04T10:47:28;4;4;
61760;PMS5003;47664;51.660;-0.100;2023-03-04T10:50:01;7;5;
61760;PMS5003;47664;51.660;-0.100;2023-03-04T10:52:46;4;4;
61760;PMS5003;47664;51.660;-0.100;2023-03-04T10:55:22;10;5;
61760;PMS5003;47664;51.660;-0.100;2023-03-04T10:58:11;7;5;
61760;PMS5003;47664;51.660;-0.100;2023-03-04T11:00:42;4;3;
61760;PMS5003;47664;51.660;-0.100;2023-03-04T11:03:27;6;4;
61760;PMS5003;47664;51.660;-0.100;2023-03-04T11:06:05;6;4;
61760;PMS5003;47664;51.660;-0.100;2023-03-04T11:08:38;8;7;
61760;PMS5003;47664;51.660;-0.100;2023-03-04T11:11:20;7;7;
61760;PMS5003;47664;51.660;-0.100;2023-03-04T11:13:49;8;6;
61760;PMS5003;47664;51.660;-0.100;2023-03-04T11:16:26;7;6;
61760;PMS5003;47664;51.660;-0.100;2023-03-04T11:19:00;9;6;
61760;PMS5003;47664;51.660;-0.100;2023-03-04T11:21:35;12;4;
61760;PMS5003;47664;51.660;-0.100;2023-03-04T11:24:05;10;7;
61760;PMS5003;47664;51.660;-0.100;2023-03-04T11:26:39;9;5;
61760;PMS5003;47664;51.660;-0.100;2023-03-04T11:29:13;8;6;
61760;PMS5003;47664;51.660;-0.100;2023-03-04T11:31:49;5;5;
61760;PMS5003;47664;51.660;-0.100;2023-03-04T11:34:25;11;7;
61760;PMS5003;47664;51.660;-0.100;2023-03-04T11:37:01;9;8;
61760;PMS5003;47664;51.660;-0.100;2023-03-04T11:39:43;12;7;
61760;PMS5003;47664;51.660;-0.100;2023-03-04T11:42:20;9;8;
61760;PMS5003;47664;51.660;-0.100;2023-03-04T11:44:55;5;5;
61760;PMS5003;47664;51.660;-0.100;2023-03-04T11:47:32;9;9;
61760;PMS5003;47664;51.660;-0.100;2023-03-04T11:50:18;11;9;
61760;PMS5003;47664;51.660;-0.100;2023-03-04T11:53:03;12;12;
61760;PMS5003;47664;51.660;-0.100;2023-03-04T11:55:50;10;7;
61760;PMS5003;47664;51.660;-0.100;2023-03-04T11:58:39;11;10;
61760;PMS5003;47664;51.660;-0.100;2023-03-04T12:01:17;17;12;
61760;PMS5003;47664;51.660;-0.100;2023-03-04T12:03:58;11;11;
61760;PMS5003;47664;51.660;-0.100;2023-03-04T12:06:56;8;6;
61760;PMS5003;47664;51.660;-0.100;2023-03-04T12:09:38;11;8;
61760;PMS5003;47664;51.660;-0.100;2023-03-04T12:12:18;6;6;
61760;PMS5003;47664;51.660;-0.100;2023-03-04T12:14:54;6;6;
61760;PMS5003;47664;51.660;-0.100;2023-03-04T12:17:37;6;4;
61760;PMS5003;47664;51.660;-0.100;2023-03-04T12:20:30;8;6;
61760;PMS5003;47664;51.660;-0.100;2023-03-04T12:23:12;7;6;
61760;PMS5003;47664;51.660;-0.100;2023-03-04T12:25:54;9;7;
61760;PMS5003;47664;51.660;-0.100;2023-03-04T12:28:37;7;5;
61760;PMS5003;47664;51.660;-0.100;2023-03-04T12:31:17;5;4;
61760;PMS5003;47664;51.660;-0.100;2023-03-04T12:34:02;7;5;
61760;PMS5003;47664;51.660;-0.100;2023-03-04T12:36:53;4;4;
61760;PMS5003;47664;51.660;-0.100;2023-03-04T12:39:31;7;5;
61760;PMS5003;47664;51.660;-0.100;2023-03-04T12:42:08;5;4;
61760;PMS5003;47664;51.660;-0.100;2023-03-04T12:44:52;4;4;
61760;PMS5003;47664;51.660;-0.100;2023-03-04T12:47:27;5;5;
61760;PMS5003;47664;51.660;-0.100;2023-03-04T12:50:06;5;5;
61760;PMS5003;47664;51.660;-0.100;2023-03-04T12:52:52;5;4;
61760;PMS5003;47664;51.660;-0.100;2023-03-04T12:55:29;7;4;
61760;PMS5003;47664;51.660;-0.100;2023-03-04T12:58:02;4;4;
61760;PMS5003;47664;51.660;-0.100;2023-03-04T13:00:44;8;7;
61760;PMS5003;47664;51.660;-0.100;2023-03-04T13:03:20;4;4;
61760;PMS5003;47664;51.660;-0.100;2023-03-04T13:06:00;6;4;
61760;PMS5003;47664;51.660;-0.100;2023-03-04T13:08:40;6;5;
61760;PMS5003;47664;51.660;-0.100;2023-03-04T13:11:39;10;6;
61760;PMS5003;47664;51.660;-0.100;2023-03-04T13:14:32;10;5;
61760;PMS5003;47664;51.660;-0.100;2023-03-04T13:17:00;23;19;
61760;PMS5003;47664;51.660;-0.100;2023-03-04T13:20:12;8;8;
61760;PMS5003;47664;51.660;-0.100;2023-03-04T13:22:54;26;23;
61760;PMS5003;47664;51.660;-0.100;2023-03-04T13:25:38;17;8;
61760;PMS5003;47664;51.660;-0.100;2023-03-04T13:28:22;7;7;
61760;PMS5003;47664;51.660;-0.100;2023-03-04T13:31:05;12;11;
61760;PMS5003;47664;51.660;-0.100;2023-03-04T13:33:44;11;7;
61760;PMS5003;47664;51.660;-0.100;2023-03-04T13:36:30;21;18;
61760;PMS5003;47664;51.660;-0.100;2023-03-04T13:39:22;13;13;
61760;PMS5003;47664;51.660;-0.100;2023-03-04T13:41:55;9;7;
61760;PMS5003;47664;51.660;-0.100;2023-03-04T13:44:32;11;9;
61760;PMS5003;47664;51.660;-0.100;2023-03-04T13:45:00;11;10;
61760;PMS5003;47664;51.660;-0.100;2023-03-04T13:47:55;8;7;
61760;PMS5003;47664;51.660;-0.100;2023-03-04T13:50:32;10;8;
61760;PMS5003;47664;51.660;-0.100;2023-03-04T13:53:26;9;8;
61760;PMS5003;47664;51.660;-0.100;2023-03-04T13:56:04;7;7;
61760;PMS5003;47664;51.660;-0.100;2023-03-04T13:58:38;15;15;
61760;PMS5003;47664;51.660;-0.100;2023-03-04T14:01:21;11;10;
61760;PMS5003;47664;51.660;-0.100;2023-03-04T14:03:51;17;17;
61760;PMS5003;47664;51.660;-0.100;2023-03-04T14:06:24;13;11;
61760;PMS5003;47664;51.660;-0.100;2023-03-04T14:08:56;14;12;
61760;PMS5003;47664;51.660;-0.100;2023-03-04T14:11:38;15;12;
61760;PMS5003;47664;51.660;-0.100;2023-03-04T14:14:12;10;9;
61760;PMS5003;47664;51.660;-0.100;2023-03-04T14:16:48;9;6;
61760;PMS5003;47664;51.660;-0.100;2023-03-04T14:19:24;12;11;
61760;PMS5003;47664;51.660;-0.100;2023-03-04T14:21:58;13;13;
61760;PMS5003;47664;51.660;-0.100;2023-03-04T14:24:54;15;11;
61760;PMS5003;47664;51.660;-0.100;2023-03-04T14:27:22;9;9;
61760;PMS5003;47664;51.660;-0.100;2023-03-04T14:29:55;10;10;
61760;PMS5003;47664;51.660;-0.100;2023-03-04T14:32:29;11;9;
61760;PMS5003;47664;51.660;-0.100;2023-03-04T14:35:03;13;10;
61760;PMS5003;47664;51.660;-0.100;2023-03-04T14:37:47;11;9;
61760;PMS5003;47664;51.660;-0.100;2023-03-04T14:40:19;13;12;
61760;PMS5003;47664;51.660;-0.100;2023-03-04T14:42:50;11;11;
61760;PMS5003;47664;51.660;-0.100;2023-03-04T14:45:27;15;15;
61760;PMS5003;47664;51.660;-0.100;2023-03-04T14:48:00;9;9;
61760;PMS5003;47664;51.660;-0.100;2023-03-04T14:50:32;7;6;
61760;PMS5003;47664;51.660;-0.100;2023-03-04T14:53:13;8;8;
61760;PMS5003;47664;51.660;-0.100;2023-03-04T14:55:56;7;7;
61760;PMS5003;47664;51.660;-0.100;2023-03-04T14:58:25;14;10;
61760;PMS5003;47664;51.660;-0.100;2023-03-04T15:01:03;9;7;
61760;PMS5003;47664;51.660;-0.100;2023-03-04T15:03:32;16;11;
61760;PMS5003;47664;51.660;-0.100;2023-03-04T15:06:05;7;7;
61760;PMS5003;47664;51.660;-0.100;2023-03-04T15:08:43;8;6;
61760;PMS5003;47664;51.660;-0.100;2023-03-04T15:11:21;10;10;
61760;PMS5003;47664;51.660;-0.100;2023-03-04T15:13:56;8;8;
61760;PMS5003;47664;51.660;-0.100;2023-03-04T15:16:38;11;7;
61760;PMS5003;47664;51.660;-0.100;2023-03-04T15:19:23;9;7;
61760;PMS5003;47664;51.660;-0.100;2023-03-04T15:21:51;17;13;
61760;PMS5003;47664;51.660;-0.100;2023-03-04T15:24:29;14;10;
61760;PMS5003;47664;51.660;-0.100;2023-03-04T15:27:02;9;9;
61760;PMS5003;47664;51.660;-0.100;2023-03-04T15:29:35;19;16;
61760;PMS5003;47664;51.660;-0.100;2023-03-04T15:32:09;16;11;
61760;PMS5003;47664;51.660;-0.100;2023-03-04T15:34:42;16;15;
61760;PMS5003;47664;51.660;-0.100;2023-03-04T15:37:15;12;12;
61760;PMS5003;47664;51.660;-0.100;2023-03-04T15:39:46;13;9;
61760;PMS5003;47664;51.660;-0.100;2023-03-04T15:42:20;12;8;
61760;PMS5003;47664;51.660;-0.100;2023-03-04T15:44:52;10;9;
61760;PMS5003;47664;51.660;-0.100;2023-03-04T15:47:24;16;15;
61760;PMS5003;47664;51.660;-0.100;2023-03-04T15:49:56;14;12;
61760;PMS5003;47664;51.660;-0.100;2023-03-04T15:52:29;19;11;
61760;PMS5003;47664;51.660;-0.100;2023-03-04T15:55:02;12;11;
61760;PMS5003;47664;51.660;-0.100;2023-03-04T15:57:36;13;12;
61760;PMS5003;47664;51.660;-0.100;2023-03-04T16:00:11;18;15;
61760;PMS5003;47664;51.660;-0.100;2023-03-04T16:02:43;15;13;
61760;PMS5003;47664;51.660;-0.100;2023-03-04T16:05:15;12;12;
61760;PMS5003;47664;51.660;-0.100;2023-03-04T16:07:48;14;13;
61760;PMS5003;47664;51.660;-0.100;2023-03-04T16:10:21;13;11;
61760;PMS5003;47664;51.660;-0.100;2023-03-04T16:12:52;11;11;
61760;PMS5003;47664;51.660;-0.100;2023-03-04T16:15:25;21;18;
61760;PMS5003;47664;51.660;-0.100;2023-03-04T16:17:57;16;13;
61760;PMS5003;47664;51.660;-0.100;2023-03-04T16:20:30;19;11;
61760;PMS5003;47664;51.660;-0.100;2023-03-04T16:23:04;13;12;
61760;PMS5003;47664;51.660;-0.100;2023-03-04T16:25:38;13;13;
61760;PMS5003;47664;51.660;-0.100;2023-03-04T16:28:09;13;13;
61760;PMS5003;47664;51.660;-0.100;2023-03-04T16:30:42;14;13;
61760;PMS5003;47664;51.660;-0.100;2023-03-04T16:33:15;14;12;
61760;PMS5003;47664;51.660;-0.100;2023-03-04T16:35:47;20;15;
61760;PMS5003;47664;51.660;-0.100;2023-03-04T16:38:20;14;12;
61760;PMS5003;47664;51.660;-0.100;2023-03-04T16:40:53;15;14;
61760;PMS5003;47664;51.660;-0.100;2023-03-04T16:43:26;15;13;
61760;PMS5003;47664;51.660;-0.100;2023-03-04T16:45:59;13;13;
61760;PMS5003;47664;51.660;-0.100;2023-03-04T16:48:32;22;16;
61760;PMS5003;47664;51.660;-0.100;2023-03-04T16:51:09;16;11;
61760;PMS5003;47664;51.660;-0.100;2023-03-04T16:53:41;19;13;
61760;PMS5003;47664;51.660;-0.100;2023-03-04T16:56:18;15;13;
61760;PMS5003;47664;51.660;-0.100;2023-03-04T16:58:50;17;15;
61760;PMS5003;47664;51.660;-0.100;2023-03-04T17:01:24;12;11;
61760;PMS5003;47664;51.660;-0.100;2023-03-04T17:03:57;13;12;
61760;PMS5003;47664;51.660;-0.100;2023-03-04T17:06:29;14;9;
61760;PMS5003;47664;51.660;-0.100;2023-03-04T17:09:01;17;12;
61760;PMS5003;47664;51.660;-0.100;2023-03-04T17:11:34;15;15;
61760;PMS5003;47664;51.660;-0.100;2023-03-04T17:14:06;14;12;